Terminal Aerodrome Forecast
Issued by NWS Jacksonville, FL

Home | Current Version | Previous Version | Text Only | Print | Product List | Glossary On
Versions: 1 2 3 4 5 6 7 8 9 10 11 12 13 14 15 16 17 18 19 20 21 22 23 24 25 26 27 28 29 30 31 32 33
000
FTUS42 KJAX 102000 AAB
TAFGNV
TAF AMD
KGNV 102029Z 1020/1118 36006KT P6SM VCSH SCT040 BKN150
     FM110100 24002KT P6SM BKN250
      TEMPO 1109/1112 4SM BR SCT002
     FM111500 18003KT P6SM BKN250=

USA.gov is the U.S. government's official web portal to all federal, state and local government web resources and services.